createdAt,value
2022-10-22T00:02:27.865Z,4.65
2022-10-22T00:04:57.029Z,3.13
2022-10-22T00:07:24.270Z,3.97
2022-10-22T00:09:50.816Z,3.85
2022-10-22T00:12:18.920Z,5.20
2022-10-22T00:14:45.601Z,5.00
2022-10-22T00:17:12.123Z,3.88
2022-10-22T00:19:39.452Z,3.58
2022-10-22T00:22:06.656Z,4.47
2022-10-22T00:24:34.930Z,4.95
2022-10-22T00:27:01.721Z,7.00
2022-10-22T00:29:28.518Z,7.45
2022-10-22T00:34:23.015Z,4.28
2022-10-22T00:37:03.379Z,5.03
2022-10-22T00:39:29.884Z,4.53
2022-10-22T00:42:02.642Z,6.15
2022-10-22T00:45:02.884Z,4.00
2022-10-22T00:47:33.488Z,6.05
2022-10-22T00:50:00.668Z,4.15
2022-10-22T00:52:27.379Z,5.95
2022-10-22T00:54:54.046Z,5.22
2022-10-22T00:57:20.876Z,6.50
2022-10-22T00:59:48.378Z,6.57
2022-10-22T01:02:15.454Z,5.43
2022-10-22T01:04:41.961Z,6.18
2022-10-22T01:07:16.163Z,7.50
2022-10-22T01:09:47.538Z,6.20
2022-10-22T01:12:19.726Z,12.77
2022-10-22T01:15:23.748Z,6.70
2022-10-22T01:18:09.660Z,5.25
2022-10-22T01:20:50.553Z,6.30
2022-10-22T01:23:45.804Z,9.80
2022-10-22T01:26:50.020Z,5.00
2022-10-22T01:29:27.724Z,8.07
2022-10-22T01:32:00.920Z,5.50
2022-10-22T01:34:28.880Z,4.53
2022-10-22T01:36:56.680Z,8.80
2022-10-22T01:41:55.328Z,5.43
2022-10-22T01:47:17.473Z,7.05
2022-10-22T01:49:57.307Z,5.23
2022-10-22T01:52:45.951Z,6.13
2022-10-22T01:55:12.452Z,7.45
2022-10-22T01:58:14.054Z,4.93
2022-10-22T02:01:18.672Z,6.70
2022-10-22T02:03:51.059Z,6.57
2022-10-22T02:06:21.026Z,7.28
2022-10-22T02:08:48.696Z,6.18
2022-10-22T02:11:15.688Z,8.30
2022-10-22T02:13:48.693Z,6.93
2022-10-22T02:16:25.560Z,7.22
2022-10-22T02:18:54.899Z,6.90
2022-10-22T02:21:21.727Z,5.55
2022-10-22T02:23:48.370Z,6.45
2022-10-22T02:26:22.878Z,6.75
2022-10-22T02:28:53.508Z,6.50
2022-10-22T02:31:24.832Z,6.32
2022-10-22T02:33:54.511Z,6.97
2022-10-22T02:36:22.067Z,6.15
2022-10-22T02:38:49.210Z,7.07
2022-10-22T02:41:17.157Z,7.97
2022-10-22T02:43:53.699Z,6.43
2022-10-22T02:46:20.544Z,5.78
2022-10-22T02:48:47.328Z,6.18
2022-10-22T02:51:13.869Z,7.80
2022-10-22T02:53:40.699Z,7.90
2022-10-22T02:56:07.596Z,7.57
2022-10-22T02:58:34.075Z,8.57
2022-10-22T03:01:00.682Z,8.73
2022-10-22T03:03:29.924Z,8.80
2022-10-22T03:05:56.480Z,7.40
2022-10-22T03:08:22.979Z,7.65
2022-10-22T03:10:52.854Z,9.02
2022-10-22T03:13:21.484Z,8.02
2022-10-22T03:15:51.398Z,5.55
2022-10-22T03:18:18.090Z,10.63
2022-10-22T03:20:44.615Z,14.07
2022-10-22T03:23:12.623Z,7.95
2022-10-22T03:25:40.686Z,9.10
2022-10-22T03:28:09.514Z,8.40
2022-10-22T03:30:36.035Z,6.70
2022-10-22T03:33:03.091Z,7.95
2022-10-22T03:35:31.497Z,11.48
2022-10-22T03:38:00.520Z,11.95
2022-10-22T03:40:27.194Z,8.63
2022-10-22T03:42:53.688Z,11.45
2022-10-22T03:45:20.325Z,9.30
2022-10-22T03:47:46.783Z,7.82
2022-10-22T03:50:13.273Z,9.00
2022-10-22T03:52:40.148Z,10.43
2022-10-22T03:55:07.810Z,10.18
2022-10-22T03:57:34.454Z,10.15
2022-10-22T04:00:00.989Z,9.43
2022-10-22T04:02:27.683Z,13.20
2022-10-22T04:04:54.207Z,9.10
2022-10-22T04:07:20.771Z,12.10
2022-10-22T04:09:47.551Z,9.27
2022-10-22T04:12:14.177Z,8.75
2022-10-22T04:14:40.692Z,12.20
2022-10-22T04:17:07.360Z,8.70
2022-10-22T04:19:34.092Z,11.18
2022-10-22T04:22:03.011Z,9.25
2022-10-22T04:24:30.723Z,14.80
2022-10-22T04:26:57.230Z,8.13
2022-10-22T04:29:24.541Z,10.93
2022-10-22T04:31:51.129Z,10.35
2022-10-22T04:34:17.678Z,8.35
2022-10-22T04:36:44.196Z,7.57
2022-10-22T04:39:10.751Z,12.13
2022-10-22T04:41:39.186Z,10.38
2022-10-22T04:44:06.738Z,10.07
2022-10-22T04:46:35.284Z,8.23
2022-10-22T04:49:03.933Z,12.32
2022-10-22T04:51:31.028Z,13.60
2022-10-22T04:53:57.589Z,7.75
2022-10-22T04:56:26.411Z,11.35
2022-10-22T04:59:04.774Z,8.52
2022-10-22T05:01:42.824Z,12.50
2022-10-22T05:04:13.138Z,9.10
2022-10-22T05:06:39.806Z,11.75
2022-10-22T05:09:10.677Z,12.30
2022-10-22T05:11:41.502Z,10.77
2022-10-22T05:14:09.436Z,10.75
2022-10-22T05:16:36.212Z,11.10
2022-10-22T05:19:02.912Z,8.00
2022-10-22T05:21:29.915Z,9.50
2022-10-22T05:23:57.353Z,7.20
2022-10-22T05:26:25.107Z,9.70
2022-10-22T05:28:52.264Z,8.93
2022-10-22T05:31:19.563Z,7.00
2022-10-22T05:33:46.564Z,8.07
2022-10-22T05:36:15.934Z,7.93
2022-10-22T05:38:42.399Z,8.88
2022-10-22T05:41:28.336Z,9.45
2022-10-22T05:43:58.868Z,7.97
2022-10-22T05:46:27.588Z,7.65
2022-10-22T05:48:56.355Z,7.65
2022-10-22T05:51:23.020Z,10.40
2022-10-22T05:53:52.940Z,10.23
2022-10-22T05:56:19.428Z,8.07
2022-10-22T05:58:46.518Z,11.10
2022-10-22T06:01:15.615Z,8.27
2022-10-22T06:03:42.792Z,8.77
2022-10-22T06:06:35.489Z,9.07
2022-10-22T06:09:10.229Z,11.93
2022-10-22T06:11:36.911Z,9.15
2022-10-22T06:14:03.921Z,10.35
2022-10-22T06:16:31.271Z,7.93
2022-10-22T06:18:59.446Z,9.65
2022-10-22T06:21:25.929Z,5.47
2022-10-22T06:23:52.409Z,7.60
2022-10-22T06:26:18.945Z,10.00
2022-10-22T06:28:45.424Z,7.40
2022-10-22T06:31:11.920Z,10.95
2022-10-22T06:33:42.382Z,8.05
2022-10-22T06:36:14.879Z,6.90
2022-10-22T06:38:41.858Z,10.25
2022-10-22T06:41:10.788Z,6.60
2022-10-22T06:43:37.279Z,8.23
2022-10-22T06:46:07.231Z,9.00
2022-10-22T06:48:35.609Z,10.43
2022-10-22T06:51:06.677Z,7.13
2022-10-22T06:53:33.645Z,7.40
2022-10-22T06:56:05.160Z,10.32
2022-10-22T07:01:06.214Z,6.55
2022-10-22T07:03:32.767Z,10.40
2022-10-22T07:06:05.668Z,11.23
2022-10-22T07:08:32.986Z,7.88
2022-10-22T07:11:11.256Z,9.35
2022-10-22T07:13:38.094Z,8.00
2022-10-22T07:16:06.124Z,7.07
2022-10-22T07:18:32.747Z,6.38
2022-10-22T07:20:59.699Z,8.07
2022-10-22T07:23:26.795Z,7.18
2022-10-22T07:25:53.490Z,7.43
2022-10-22T07:28:20.151Z,7.43
2022-10-22T07:30:46.912Z,8.32
2022-10-22T07:33:13.696Z,10.18
2022-10-22T07:35:40.535Z,7.88
2022-10-22T07:38:07.973Z,7.97
2022-10-22T07:40:35.243Z,7.68
2022-10-22T07:43:02.312Z,10.32
2022-10-22T07:45:28.820Z,8.98
2022-10-22T07:47:55.384Z,10.32
2022-10-22T07:50:21.855Z,6.95
2022-10-22T07:52:48.334Z,9.65
2022-10-22T07:55:14.864Z,12.48
2022-10-22T07:57:41.439Z,8.27
2022-10-22T08:00:09.435Z,12.50
2022-10-22T08:02:35.946Z,10.02
2022-10-22T08:05:02.440Z,7.45
2022-10-22T08:07:28.914Z,8.00
2022-10-22T08:09:55.449Z,8.23
2022-10-22T08:12:21.936Z,6.82
2022-10-22T08:14:48.398Z,7.07
2022-10-22T08:17:15.694Z,9.00
2022-10-22T08:19:42.136Z,10.77
2022-10-22T08:22:08.785Z,10.48
2022-10-22T08:24:35.514Z,8.70
2022-10-22T08:27:01.965Z,8.43
2022-10-22T08:29:28.586Z,9.27
2022-10-22T08:31:55.078Z,8.38
2022-10-22T08:34:21.829Z,10.98
2022-10-22T08:36:48.453Z,7.22
2022-10-22T08:39:14.952Z,9.25
2022-10-22T08:42:09.416Z,9.55
2022-10-22T08:44:35.889Z,16.02
2022-10-22T08:47:26.506Z,12.02
2022-10-22T08:49:53.916Z,10.13
2022-10-22T08:52:20.883Z,8.40
2022-10-22T08:54:56.009Z,8.90
2022-10-22T08:57:51.498Z,11.95
2022-10-22T09:00:31.186Z,8.40
2022-10-22T09:03:09.654Z,7.45
2022-10-22T09:05:54.776Z,8.73
2022-10-22T09:08:21.938Z,8.85
2022-10-22T09:10:51.188Z,9.30
2022-10-22T09:13:20.721Z,10.18
2022-10-22T09:15:53.042Z,8.63
2022-10-22T09:18:31.261Z,13.98
2022-10-22T09:21:02.520Z,10.70
2022-10-22T09:23:34.695Z,8.85
2022-10-22T09:26:01.418Z,8.85
2022-10-22T09:28:27.890Z,7.78
2022-10-22T09:30:54.624Z,9.75
2022-10-22T09:33:25.286Z,8.40
2022-10-22T09:35:58.699Z,6.03
2022-10-22T09:38:30.486Z,12.02
2022-10-22T09:40:59.208Z,8.23
2022-10-22T09:43:25.775Z,9.40
2022-10-22T09:46:03.957Z,10.18
2022-10-22T09:48:34.625Z,11.05
2022-10-22T09:51:10.292Z,7.70
2022-10-22T09:53:39.346Z,8.32
2022-10-22T09:56:22.866Z,9.38
2022-10-22T09:58:51.258Z,10.95
2022-10-22T10:01:30.185Z,11.93
2022-10-22T10:04:08.395Z,7.95
2022-10-22T10:06:39.009Z,12.45
2022-10-22T10:09:20.022Z,9.57
2022-10-22T10:11:52.368Z,9.60
2022-10-22T10:14:29.058Z,9.90
2022-10-22T10:17:16.566Z,8.52
2022-10-22T10:20:14.354Z,9.38
2022-10-22T10:22:59.369Z,10.23
2022-10-22T10:25:35.151Z,12.52
2022-10-22T10:28:12.748Z,8.48
2022-10-22T10:30:46.267Z,8.80
2022-10-22T10:33:31.599Z,8.95
2022-10-22T10:36:07.142Z,10.77
2022-10-22T10:38:52.441Z,10.73
2022-10-22T10:41:23.612Z,10.80
2022-10-22T10:44:12.290Z,9.07
2022-10-22T10:47:00.106Z,8.75
2022-10-22T10:49:30.248Z,8.55
2022-10-22T10:52:20.485Z,9.30
2022-10-22T10:55:08.209Z,9.63
2022-10-22T10:57:42.584Z,8.82
2022-10-22T11:00:12.383Z,11.05
2022-10-22T11:03:06.581Z,7.30
2022-10-22T11:05:41.856Z,9.27
2022-10-22T11:08:15.320Z,7.60
2022-10-22T11:11:21.341Z,6.75
2022-10-22T11:13:53.830Z,10.25
2022-10-22T11:16:40.470Z,9.75
2022-10-22T11:19:22.664Z,7.53
2022-10-22T11:22:05.129Z,9.60
2022-10-22T11:24:55.069Z,11.07
2022-10-22T11:27:49.087Z,9.52
2022-10-22T11:30:22.781Z,10.20
2022-10-22T11:32:52.960Z,10.32
2022-10-22T11:35:28.272Z,14.43
2022-10-22T11:37:56.025Z,9.77
2022-10-22T11:40:33.289Z,7.28
2022-10-22T11:43:08.142Z,9.68
2022-10-22T11:45:43.016Z,11.23
2022-10-22T11:48:09.461Z,13.02
2022-10-22T11:50:46.830Z,11.35
2022-10-22T11:53:13.255Z,10.93
2022-10-22T11:55:55.527Z,11.73
2022-10-22T11:58:34.041Z,12.50
2022-10-22T12:01:09.711Z,12.18
2022-10-22T12:03:49.582Z,14.48
2022-10-22T12:06:16.079Z,13.13
2022-10-22T12:09:04.911Z,13.82
2022-10-22T12:11:39.781Z,11.45
2022-10-22T12:14:26.500Z,13.30
2022-10-22T12:16:57.603Z,9.68
2022-10-22T12:19:29.778Z,12.30
2022-10-22T12:21:58.373Z,11.20
2022-10-22T12:24:29.759Z,11.35
2022-10-22T12:29:24.009Z,10.25
2022-10-22T12:31:50.644Z,10.45
2022-10-22T12:34:21.858Z,9.93
2022-10-22T12:36:49.675Z,12.15
2022-10-22T12:39:19.750Z,11.43
2022-10-22T12:41:46.519Z,12.45
2022-10-22T12:44:15.162Z,8.80
2022-10-22T12:46:43.108Z,13.52
2022-10-22T12:49:21.934Z,10.68
2022-10-22T12:51:48.852Z,8.55
2022-10-22T12:54:27.560Z,10.60
2022-10-22T12:56:55.430Z,7.75
2022-10-22T12:59:23.361Z,6.90
2022-10-22T13:01:51.559Z,8.60
2022-10-22T13:04:28.433Z,9.48
2022-10-22T13:07:21.869Z,6.97
2022-10-22T13:09:59.871Z,9.27
2022-10-22T13:12:28.429Z,9.05
2022-10-22T13:14:54.907Z,6.90
2022-10-22T13:17:37.081Z,9.02
2022-10-22T13:20:11.913Z,7.63
2022-10-22T13:22:40.414Z,6.90
2022-10-22T13:25:13.112Z,7.95
2022-10-22T13:27:51.367Z,5.90
2022-10-22T13:30:19.724Z,8.63
2022-10-22T13:32:59.404Z,7.47
2022-10-22T13:35:28.883Z,6.25
2022-10-22T13:37:55.406Z,7.57
2022-10-22T13:40:22.041Z,3.83
2022-10-22T13:42:48.735Z,6.55
2022-10-22T13:45:15.476Z,5.13
2022-10-22T13:47:43.783Z,5.00
2022-10-22T13:50:15.541Z,7.38
2022-10-22T13:53:00.184Z,7.70
2022-10-22T13:55:30.459Z,4.88
2022-10-22T13:57:59.956Z,5.22
2022-10-22T14:00:38.550Z,4.68
2022-10-22T14:03:05.747Z,6.05
2022-10-22T14:05:32.719Z,6.15
2022-10-22T14:08:00.550Z,5.30
2022-10-22T14:10:27.112Z,7.40
2022-10-22T14:12:53.803Z,5.53
2022-10-22T14:15:24.303Z,6.15
2022-10-22T14:17:54.588Z,7.13
2022-10-22T14:20:29.940Z,9.45
2022-10-22T14:22:56.867Z,7.57
2022-10-22T14:25:25.160Z,8.32
2022-10-22T14:27:52.079Z,8.18
2022-10-22T14:30:25.175Z,9.85
2022-10-22T14:32:52.431Z,6.22
2022-10-22T14:35:21.310Z,6.35
2022-10-22T14:37:48.095Z,6.93
2022-10-22T14:40:17.244Z,7.40
2022-10-22T14:42:46.205Z,6.95
2022-10-22T14:45:22.964Z,11.52
2022-10-22T14:47:50.394Z,7.25
2022-10-22T14:50:17.639Z,7.82
2022-10-22T14:52:44.693Z,7.03
2022-10-22T14:55:13.674Z,7.22
2022-10-22T14:57:40.978Z,6.35
2022-10-22T15:00:10.990Z,7.72
2022-10-22T15:02:37.573Z,6.45
2022-10-22T15:05:04.800Z,6.80
2022-10-22T15:07:31.316Z,9.27
2022-10-22T15:09:57.786Z,9.68
2022-10-22T15:12:24.360Z,8.23
2022-10-22T15:14:50.886Z,8.95
2022-10-22T15:17:18.459Z,9.05
2022-10-22T15:19:45.054Z,5.78
2022-10-22T15:22:12.560Z,5.25
2022-10-22T15:24:40.653Z,7.57
2022-10-22T15:27:08.098Z,6.63
2022-10-22T15:29:34.812Z,4.45
2022-10-22T15:32:01.444Z,5.15
2022-10-22T15:34:32.861Z,5.68
2022-10-22T15:39:27.068Z,5.95
2022-10-22T15:41:54.323Z,6.93
2022-10-22T15:44:26.875Z,7.13
2022-10-22T15:46:56.711Z,7.88
2022-10-22T15:49:24.725Z,5.03
2022-10-22T15:51:51.498Z,6.32
2022-10-22T15:54:20.627Z,5.30
2022-10-22T15:56:47.416Z,4.75
2022-10-22T15:59:15.968Z,6.47
2022-10-22T16:01:43.110Z,4.95
2022-10-22T16:04:09.723Z,4.80
2022-10-22T16:06:41.768Z,3.63
2022-10-22T16:09:14.033Z,5.47
2022-10-22T16:11:41.098Z,5.15
2022-10-22T16:14:08.536Z,6.97
2022-10-22T16:16:37.002Z,4.95
2022-10-22T16:19:03.499Z,5.85
2022-10-22T16:21:30.189Z,6.05
2022-10-22T16:23:56.668Z,7.97
2022-10-22T16:26:23.175Z,8.68
2022-10-22T16:28:49.725Z,6.65
2022-10-22T16:31:17.636Z,5.93
2022-10-22T16:33:47.725Z,4.68
2022-10-22T16:36:18.161Z,7.03
2022-10-22T16:38:45.160Z,4.80
2022-10-22T16:41:15.771Z,5.28
2022-10-22T16:43:44.205Z,5.87
2022-10-22T16:46:11.583Z,4.53
2022-10-22T16:48:40.765Z,7.30
2022-10-22T16:51:09.270Z,4.97
2022-10-22T16:53:36.089Z,4.43
2022-10-22T16:56:03.278Z,4.75
2022-10-22T16:58:29.956Z,4.82
2022-10-22T17:00:56.506Z,5.10
2022-10-22T17:03:24.610Z,6.43
2022-10-22T17:05:54.010Z,3.17
2022-10-22T17:08:20.451Z,3.13
2022-10-22T17:10:47.048Z,3.95
2022-10-22T17:13:13.522Z,2.72
2022-10-22T17:15:40.568Z,3.75
2022-10-22T17:18:07.055Z,2.90
2022-10-22T17:20:33.536Z,2.85
2022-10-22T17:23:00.004Z,3.70
2022-10-22T17:25:36.550Z,2.92
2022-10-22T17:28:03.115Z,4.20
2022-10-22T17:30:30.361Z,4.80
2022-10-22T17:32:57.129Z,3.58
2022-10-22T17:35:23.666Z,5.88
2022-10-22T17:37:50.205Z,5.07
2022-10-22T17:40:16.751Z,3.92
2022-10-22T17:42:45.387Z,4.30
2022-10-22T17:45:11.905Z,4.60
2022-10-22T17:47:38.403Z,5.18
2022-10-22T17:50:05.332Z,6.45
2022-10-22T17:52:31.875Z,5.40
2022-10-22T17:54:58.407Z,4.40
2022-10-22T17:57:24.853Z,5.85
2022-10-22T17:59:51.327Z,5.03
2022-10-22T18:02:18.442Z,5.80
2022-10-22T18:04:45.331Z,4.40
2022-10-22T18:07:11.892Z,8.23
2022-10-22T18:09:39.312Z,5.15
2022-10-22T18:12:06.264Z,6.90
2022-10-22T18:14:42.525Z,5.00
2022-10-22T18:17:10.181Z,5.88
2022-10-22T18:19:36.915Z,8.80
2022-10-22T18:22:03.494Z,8.00
2022-10-22T18:24:30.013Z,7.95
2022-10-22T18:26:56.573Z,7.82
2022-10-22T18:29:23.127Z,9.20
2022-10-22T18:31:52.611Z,7.50
2022-10-22T18:34:21.808Z,7.38
2022-10-22T18:36:50.657Z,6.97
2022-10-22T18:39:17.663Z,8.75
2022-10-22T18:41:44.385Z,7.60
2022-10-22T18:44:13.220Z,11.20
2022-10-22T18:46:40.487Z,8.40
2022-10-22T18:49:07.608Z,9.65
2022-10-22T18:51:34.920Z,11.15
2022-10-22T18:54:05.764Z,8.73
2022-10-22T18:56:39.996Z,9.15
2022-10-22T18:59:06.545Z,11.50
2022-10-22T19:01:35.398Z,8.90
2022-10-22T19:04:02.063Z,9.30
2022-10-22T19:06:34.569Z,7.00
2022-10-22T19:09:04.175Z,6.90
2022-10-22T19:11:31.495Z,8.13
2022-10-22T19:13:58.093Z,6.32
2022-10-22T19:16:24.664Z,5.32
2022-10-22T19:18:52.877Z,8.88
2022-10-22T19:21:20.020Z,5.65
2022-10-22T19:23:46.596Z,6.10
2022-10-22T19:26:16.163Z,5.78
2022-10-22T19:28:43.144Z,6.32
2022-10-22T19:31:13.202Z,6.55
2022-10-22T19:33:39.985Z,6.47
2022-10-22T19:36:08.771Z,6.65
2022-10-22T19:38:38.586Z,5.28
2022-10-22T19:41:09.887Z,6.18
2022-10-22T19:43:36.392Z,6.38
2022-10-22T19:46:05.604Z,6.50
2022-10-22T19:48:32.284Z,8.32
2022-10-22T19:51:03.949Z,6.35
2022-10-22T19:56:01.565Z,6.45
2022-10-22T19:58:28.483Z,7.87
2022-10-22T20:00:55.110Z,6.03
2022-10-22T20:03:21.815Z,5.45
2022-10-22T20:05:50.669Z,5.80
2022-10-22T20:08:17.239Z,6.30
2022-10-22T20:10:43.700Z,5.70
2022-10-22T20:13:10.183Z,8.32
2022-10-22T20:15:36.892Z,4.78
2022-10-22T20:18:03.457Z,5.50
2022-10-22T20:20:30.442Z,6.05
2022-10-22T20:22:56.997Z,6.30
2022-10-22T20:25:23.494Z,7.57
2022-10-22T20:27:49.966Z,5.68
2022-10-22T20:32:48.007Z,7.07
2022-10-22T20:35:14.960Z,4.60
2022-10-22T20:37:41.449Z,6.00
2022-10-22T20:40:08.327Z,7.32
2022-10-22T20:42:35.127Z,8.15
2022-10-22T20:45:01.608Z,6.00
2022-10-22T20:47:39.170Z,4.75
2022-10-22T20:50:14.612Z,6.03
2022-10-22T20:52:41.151Z,7.60
2022-10-22T20:55:07.988Z,5.35
2022-10-22T20:57:34.491Z,4.63
2022-10-22T21:00:00.958Z,4.18
2022-10-22T21:02:28.178Z,3.92
2022-10-22T21:04:54.683Z,5.82
2022-10-22T21:07:21.129Z,3.40
2022-10-22T21:09:47.635Z,4.18
2022-10-22T21:12:14.135Z,3.72
2022-10-22T21:14:40.677Z,3.47
2022-10-22T21:17:08.151Z,4.72
2022-10-22T21:19:34.680Z,3.65
2022-10-22T21:22:01.182Z,4.70
2022-10-22T21:24:27.628Z,4.28
2022-10-22T21:26:54.270Z,3.40
2022-10-22T21:29:21.284Z,3.70
2022-10-22T21:31:48.026Z,5.22
2022-10-22T21:34:14.944Z,4.68
2022-10-22T21:36:41.455Z,4.88
2022-10-22T21:39:08.750Z,4.50
2022-10-22T21:41:36.964Z,4.97
2022-10-22T21:44:03.583Z,4.72
2022-10-22T21:46:30.162Z,4.80
2022-10-22T21:49:02.108Z,6.05
2022-10-22T21:51:31.022Z,4.63
2022-10-22T21:53:57.640Z,3.42
2022-10-22T21:56:26.921Z,4.60
2022-10-22T21:58:53.805Z,4.75
2022-10-22T22:01:20.846Z,5.85
2022-10-22T22:03:52.408Z,6.88
2022-10-22T22:06:21.979Z,5.15
2022-10-22T22:08:49.093Z,5.00
2022-10-22T22:11:18.242Z,5.38
2022-10-22T22:13:45.415Z,3.78
2022-10-22T22:16:14.113Z,4.53
2022-10-22T22:18:41.321Z,4.32
2022-10-22T22:21:11.115Z,6.68
2022-10-22T22:23:39.327Z,5.15
2022-10-22T22:26:06.073Z,6.25
2022-10-22T22:28:33.255Z,7.15
2022-10-22T22:31:00.098Z,6.32
2022-10-22T22:33:27.240Z,4.57
2022-10-22T22:35:58.312Z,6.15
2022-10-22T22:38:24.790Z,5.28
2022-10-22T22:40:51.232Z,6.05
2022-10-22T22:43:17.710Z,5.65
2022-10-22T22:45:44.407Z,4.70
2022-10-22T22:48:10.869Z,5.22
2022-10-22T22:50:37.412Z,6.43
2022-10-22T22:53:03.914Z,6.32
2022-10-22T22:55:32.130Z,6.18
2022-10-22T22:57:58.816Z,4.60
2022-10-22T23:00:25.350Z,5.45
2022-10-22T23:02:55.728Z,6.22
2022-10-22T23:05:22.492Z,5.45
2022-10-22T23:07:49.131Z,4.93
2022-10-22T23:10:15.711Z,4.78
2022-10-22T23:12:42.414Z,5.72
2022-10-22T23:15:09.503Z,6.18
2022-10-22T23:20:07.873Z,5.13
2022-10-22T23:22:34.380Z,4.10
2022-10-22T23:25:00.939Z,4.53
2022-10-22T23:27:27.394Z,6.35
2022-10-22T23:29:53.846Z,4.95
2022-10-22T23:32:20.312Z,4.53
2022-10-22T23:34:46.793Z,7.13
2022-10-22T23:37:13.277Z,6.20
2022-10-22T23:39:39.825Z,5.70
2022-10-22T23:42:06.332Z,5.78
2022-10-22T23:44:32.904Z,6.10
2022-10-22T23:46:59.385Z,5.88
2022-10-22T23:49:25.906Z,4.90
2022-10-22T23:51:52.377Z,5.05
2022-10-22T23:54:18.929Z,3.63
2022-10-22T23:56:45.805Z,4.82
